Time;durP1;ratioP1;P1;durP2;ratioP2;P2;SDS_P1;SDS_P2;PMS_P1;PMS_P2;Temp;Humidity;BMP_temperature;BMP_pressure;BME280_temperature;BME280_humidity;BME280_pressure;Samples;Min_cycle;Max_cycle;Signal;HPM_P1;HPM_P2
2022/09/18 00:02:24;;;;;;;6.38;2.47;;;;;;;20.59;100.00;99223.13;5093153;28;20418;-79
2022/09/18 00:04:51;;;;;;;11.75;2.85;;;;;;;20.62;100.00;99236.31;5091521;28;20040;-77
2022/09/18 00:07:16;;;;;;;12.98;3.13;;;;;;;20.56;100.00;99220.81;5094089;28;20032;-77
2022/09/18 00:09:43;;;;;;;15.70;3.33;;;;;;;20.48;100.00;99202.00;5094814;28;20024;-77
2022/09/18 00:12:08;;;;;;;5.47;2.72;;;;;;;20.60;100.00;99223.94;5093525;28;20043;-77
2022/09/18 00:14:34;;;;;;;7.50;2.75;;;;;;;20.49;100.00;99197.34;5093651;28;20024;-77
2022/09/18 00:17:00;;;;;;;8.45;2.63;;;;;;;20.61;100.00;99229.19;5094153;28;20031;-76
2022/09/18 00:19:25;;;;;;;9.30;2.65;;;;;;;20.57;100.00;99205.28;5091766;28;20137;-76
2022/09/18 00:21:51;;;;;;;8.30;2.85;;;;;;;20.63;100.00;99226.25;5095003;28;20465;-78
2022/09/18 00:24:17;;;;;;;4.45;2.53;;;;;;;20.34;100.00;99186.75;5094699;28;20108;-80
2022/09/18 00:26:44;;;;;;;8.60;3.00;;;;;;;20.62;100.00;99227.28;5098346;28;20054;-78
2022/09/18 00:29:11;;;;;;;10.50;3.05;;;;;;;20.52;100.00;99208.66;5097747;28;20027;-78
2022/09/18 00:31:37;;;;;;;13.02;2.92;;;;;;;20.69;100.00;99244.47;5093749;28;20036;-78
2022/09/18 00:34:06;;;;;;;4.43;2.42;;;;;;;20.55;100.00;99241.00;5092885;28;20043;-76
2022/09/18 00:36:32;;;;;;;6.75;3.28;;;;;;;20.59;100.00;99244.97;5093063;28;20043;-76
2022/09/18 00:38:58;;;;;;;4.50;2.75;;;;;;;20.49;100.00;99224.66;5092267;28;20028;-77
2022/09/18 00:41:30;;;;;;;6.18;2.53;;;;;;;20.53;100.00;99237.66;5091345;28;20032;-77
2022/09/18 00:44:34;;;;;;;5.57;2.42;;;;;;;20.50;100.00;99238.09;5092046;28;20036;-79
2022/09/18 00:47:06;;;;;;;8.07;3.30;;;;;;;20.54;100.00;99228.41;5092762;28;20028;-77
2022/09/18 00:49:33;;;;;;;9.73;3.17;;;;;;;20.53;100.00;99237.66;5091606;28;20028;-77
2022/09/18 00:52:00;;;;;;;10.05;3.70;;;;;;;20.54;100.00;99238.50;5090540;28;20028;-77
2022/09/18 00:54:35;;;;;;;7.30;2.88;;;;;;;20.40;100.00;99221.38;5091808;28;20027;-77
2022/09/18 00:57:06;;;;;;;13.13;2.85;;;;;;;20.37;100.00;99216.34;5092276;28;20114;-76
2022/09/18 00:59:34;;;;;;;8.88;3.00;;;;;;;20.45;100.00;99234.38;5092317;28;20107;-76
2022/09/18 01:02:00;;;;;;;12.45;2.60;;;;;;;20.41;100.00;99228.50;5091344;28;20042;-76
2022/09/18 01:04:27;;;;;;;3.80;2.28;;;;;;;20.32;100.00;99221.66;5091346;28;20111;-76
2022/09/18 01:07:24;;;;;;;10.40;2.78;;;;;;;20.29;100.00;99222.09;5092422;28;20487;-76
2022/09/18 01:09:55;;;;;;;6.20;2.65;;;;;;;20.23;100.00;99220.22;5047662;28;20044;-78
2022/09/18 01:12:32;;;;;;;9.32;2.88;;;;;;;20.26;100.00;99225.28;5048588;28;20590;-77
2022/09/18 01:15:04;;;;;;;9.40;3.40;;;;;;;20.26;100.00;99219.81;5050059;28;20120;-77
2022/09/18 01:18:05;;;;;;;14.68;3.15;;;;;;;20.23;100.00;99214.75;5049690;28;20028;-76
2022/09/18 01:21:08;;;;;;;9.30;3.22;;;;;;;20.22;100.00;99223.16;4994318;28;20052;-79
2022/09/18 01:23:53;;;;;;;8.50;3.58;;;;;;;20.05;100.00;99206.50;5010658;28;20116;-77
2022/09/18 01:26:48;;;;;;;9.38;3.42;;;;;;;20.02;100.00;99207.78;5010176;28;20423;-76
2022/09/18 01:29:33;;;;;;;5.93;3.05;;;;;;;20.22;100.00;99234.91;5003318;28;20042;-77
2022/09/18 01:32:24;;;;;;;10.30;3.03;;;;;;;20.17;100.00;99237.47;5009543;28;20018;-78
2022/09/18 01:35:15;;;;;;;5.82;2.60;;;;;;;20.07;100.00;99212.56;5013803;28;20456;-77
2022/09/18 01:37:55;;;;;;;4.45;2.53;;;;;;;20.15;100.00;99216.94;5013134;28;20034;-78
2022/09/18 01:40:24;;;;;;;10.27;3.35;;;;;;;20.07;100.00;99210.66;5023038;28;20059;-78
2022/09/18 01:42:54;;;;;;;14.73;3.35;;;;;;;20.10;100.00;99210.22;5053608;28;20033;-77
2022/09/18 01:45:31;;;;;;;7.60;2.55;;;;;;;19.98;100.00;99205.69;5054693;28;20029;-76
2022/09/18 01:48:00;;;;;;;5.47;2.85;;;;;;;20.02;100.00;99212.41;5053022;28;20028;-77
2022/09/18 01:50:29;;;;;;;9.73;3.05;;;;;;;20.04;100.00;99211.13;5053489;28;20063;-77
2022/09/18 01:53:05;;;;;;;5.78;2.50;;;;;;;19.90;100.00;99186.88;5053084;28;20103;-76
2022/09/18 01:55:33;;;;;;;6.10;2.42;;;;;;;19.95;100.00;99217.03;5059145;28;20047;-78
2022/09/18 01:58:07;;;;;;;7.10;2.90;;;;;;;19.97;100.00;99206.75;5075406;28;20025;-77
2022/09/18 02:00:36;;;;;;;5.10;1.92;;;;;;;19.97;100.00;99221.22;5075234;28;20162;-76
2022/09/18 02:03:08;;;;;;;12.48;3.33;;;;;;;19.96;100.00;99218.72;5075393;28;20060;-78
2022/09/18 02:05:42;;;;;;;5.43;2.47;;;;;;;20.01;100.00;99227.09;5075875;28;20422;-76
2022/09/18 02:08:24;;;;;;;14.75;2.42;;;;;;;19.99;100.00;99234.66;5075467;28;20021;-78
2022/09/18 02:10:53;;;;;;;;;;;;;;;20.00;100.00;99242.63;5075547;28;20052;-76
2022/09/18 02:13:24;;;;;;;8.65;2.80;;;;;;;19.98;100.00;99235.72;5075726;28;19916;-79
2022/09/18 02:15:55;;;;;;;4.45;2.30;;;;;;;19.95;100.00;99223.34;5075393;28;20475;-76
2022/09/18 02:18:28;;;;;;;7.68;2.63;;;;;;;19.91;100.00;99226.72;5074778;28;20029;-77
2022/09/18 02:20:55;;;;;;;5.05;2.75;;;;;;;19.92;100.00;99242.03;5080525;28;20035;-80
2022/09/18 02:23:22;;;;;;;14.70;2.97;;;;;;;19.87;100.00;99230.97;5095177;28;20705;-75
2022/09/18 02:25:57;;;;;;;7.57;2.30;;;;;;;19.97;100.00;99247.66;5094785;28;20028;-77
2022/09/18 02:28:24;;;;;;;6.22;2.78;;;;;;;19.92;100.00;99228.41;5095927;28;20114;-78
2022/09/18 02:30:50;;;;;;;5.03;2.00;;;;;;;19.96;99.77;99237.84;5099314;28;20110;-77
2022/09/18 02:33:42;;;;;;;4.63;2.45;;;;;;;19.91;99.69;99230.28;5098476;28;20048;-78
2022/09/18 02:36:37;;;;;;;7.63;2.78;;;;;;;19.88;99.78;99235.34;5033453;28;20042;-78
2022/09/18 02:39:44;;;;;;;4.78;2.67;;;;;;;19.90;100.00;99239.56;5032380;28;20475;-77
2022/09/18 02:42:39;;;;;;;8.50;3.13;;;;;;;19.87;100.00;99236.41;5033160;28;20029;-77
2022/09/18 02:45:21;;;;;;;6.10;2.85;;;;;;;19.88;100.00;99243.53;5030049;28;20069;-78
2022/09/18 02:47:58;;;;;;;14.75;2.80;;;;;;;19.93;100.00;99246.47;5033964;28;20045;-79
2022/09/18 02:50:51;;;;;;;7.28;2.22;;;;;;;19.93;100.00;99250.03;5032174;28;20041;-77
2022/09/18 02:53:26;;;;;;;7.28;3.30;;;;;;;19.96;99.65;99246.88;5030514;28;20041;-77
2022/09/18 02:55:59;;;;;;;9.43;2.80;;;;;;;19.91;97.18;99232.16;5018699;28;20518;-78
2022/09/18 02:58:31;;;;;;;3.53;2.03;;;;;;;19.86;95.44;99227.38;5029702;28;20045;-76
2022/09/18 03:01:01;;;;;;;5.50;2.25;;;;;;;20.02;95.82;99242.41;5026387;28;20041;-78
2022/09/18 03:03:30;;;;;;;5.38;1.75;;;;;;;20.02;95.46;99235.06;5031208;28;20087;-77
2022/09/18 03:05:56;;;;;;;2.88;1.42;;;;;;;19.96;95.56;99229.66;5029494;28;20041;-77
2022/09/18 03:08:22;;;;;;;6.97;1.88;;;;;;;20.06;95.66;99255.38;5015072;28;20132;-77
2022/09/18 03:10:47;;;;;;;2.35;1.70;;;;;;;20.06;95.45;99252.66;5013876;28;20479;-76
2022/09/18 03:13:13;;;;;;;3.92;1.75;;;;;;;20.02;94.71;99242.41;5061383;28;20119;-76
2022/09/18 03:15:39;;;;;;;5.03;2.40;;;;;;;19.87;94.68;99236.41;5096904;28;20083;-76
2022/09/18 03:18:05;;;;;;;4.80;1.80;;;;;;;19.84;94.31;99237.69;5094926;28;20034;-76
2022/09/18 03:20:30;;;;;;;6.22;2.03;;;;;;;20.06;94.84;99277.22;5096814;28;20059;-78
2022/09/18 03:22:55;;;;;;;4.28;1.45;;;;;;;20.09;94.57;99273.22;5095575;28;20162;-78
2022/09/18 03:25:21;;;;;;;4.35;1.65;;;;;;;20.00;94.10;99255.41;5093696;28;20474;-77
2022/09/18 03:27:46;;;;;;;4.72;1.95;;;;;;;20.14;93.70;99281.59;5092465;28;20523;-79
2022/09/18 03:30:12;;;;;;;6.38;2.00;;;;;;;19.93;93.01;99254.66;5093635;28;20510;-78
2022/09/18 03:32:38;;;;;;;8.07;3.05;;;;;;;19.90;92.06;99255.06;5093040;28;20024;-76
2022/09/18 03:35:03;;;;;;;4.07;2.90;;;;;;;20.03;91.30;99291.31;5092925;28;20028;-76
2022/09/18 03:37:29;;;;;;;13.00;4.13;;;;;;;20.03;90.61;99290.47;5093709;28;20028;-77
2022/09/18 03:39:54;;;;;;;9.23;4.20;;;;;;;20.03;89.69;99290.47;5093746;28;20471;-76
2022/09/18 03:42:20;;;;;;;13.40;6.50;;;;;;;19.69;90.64;99245.31;5094317;28;20044;-78
2022/09/18 03:44:45;;;;;;;20.15;8.68;;;;;;;20.11;92.11;99331.19;5094428;28;20028;-77
2022/09/18 03:47:10;;;;;;;38.38;18.75;;;;;;;20.01;92.88;99322.59;5094353;28;20024;-78
2022/09/18 03:49:36;;;;;;;38.63;20.05;;;;;;;20.22;92.48;99368.69;5094401;28;20021;-79
2022/09/18 03:52:02;;;;;;;29.83;16.73;;;;;;;20.08;90.46;99369.81;5093497;28;20039;-79
2022/09/18 03:54:27;;;;;;;28.90;11.10;;;;;;;20.15;90.23;99365.16;5094142;28;20028;-77
2022/09/18 03:56:53;;;;;;;17.25;7.97;;;;;;;20.00;89.45;99365.44;5092995;28;20081;-76
2022/09/18 03:59:18;;;;;;;10.82;6.47;;;;;;;19.86;89.89;99346.59;5092950;28;20060;-79
2022/09/18 04:01:44;;;;;;;10.75;4.55;;;;;;;19.82;88.99;99367.19;5092096;28;20077;-78
2022/09/18 04:04:09;;;;;;;6.43;3.95;;;;;;;19.71;90.08;99365.13;5091551;28;20081;-78
2022/09/18 04:06:35;;;;;;;11.15;4.60;;;;;;;19.71;91.25;99373.31;5093170;28;20024;-77
2022/09/18 04:09:00;;;;;;;13.82;3.42;;;;;;;19.65;91.39;99380.47;5093549;28;20103;-79
2022/09/18 04:11:26;;;;;;;12.20;3.33;;;;;;;19.50;91.85;99361.63;5092973;28;20052;-80
2022/09/18 04:13:51;;;;;;;18.65;4.65;;;;;;;19.71;92.90;99412.34;5097390;28;20020;-79
2022/09/18 04:16:17;;;;;;;13.32;3.92;;;;;;;19.66;93.02;99394.94;5101905;28;20024;-79
2022/09/18 04:18:43;;;;;;;9.57;3.55;;;;;;;19.39;92.62;99364.97;5095294;28;20474;-78
2022/09/18 04:21:08;;;;;;;4.70;3.97;;;;;;;19.47;91.90;99383.84;5092909;28;20031;-76
2022/09/18 04:23:34;;;;;;;12.13;3.72;;;;;;;19.62;92.16;99405.44;5092098;28;20406;-78
2022/09/18 04:26:02;;;;;;;15.13;4.57;;;;;;;19.67;92.17;99410.25;5092297;28;20030;-75
2022/09/18 04:28:27;;;;;;;22.20;5.43;;;;;;;19.72;93.23;99414.03;5091923;28;20024;-77
2022/09/18 04:30:53;;;;;;;12.05;4.05;;;;;;;19.75;92.63;99446.34;5091922;28;20478;-77
2022/09/18 04:33:18;;;;;;;30.27;5.65;;;;;;;19.40;91.50;99410.28;5093846;28;20063;-80
2022/09/18 04:35:44;;;;;;;28.23;6.57;;;;;;;19.33;89.66;99412.13;5092787;28;20043;-79
2022/09/18 04:38:09;;;;;;;40.97;5.95;;;;;;;19.42;88.54;99438.19;5095242;28;20024;-83
2022/09/18 04:40:35;;;;;;;7.72;3.33;;;;;;;19.58;86.87;99471.53;5095852;28;20031;-85
2022/09/18 04:43:00;;;;;;;13.60;4.43;;;;;;;19.61;85.53;99476.56;5091735;28;20494;-83
2022/09/18 04:45:26;;;;;;;9.48;2.55;;;;;;;19.60;82.87;99492.06;5094198;28;20070;-80
2022/09/18 04:47:51;;;;;;;11.23;2.33;;;;;;;19.31;80.29;99482.41;5093269;28;20429;-80
2022/09/18 04:50:17;;;;;;;5.90;1.80;;;;;;;19.27;79.05;99502.09;5108291;28;20036;-80
2022/09/18 04:52:43;;;;;;;7.93;1.50;;;;;;;19.02;78.65;99471.88;5107530;28;20052;-79
2022/09/18 04:55:08;;;;;;;12.77;2.33;;;;;;;19.13;78.95;99512.16;5091784;28;20024;-79
2022/09/18 04:57:34;;;;;;;5.53;1.83;;;;;;;19.01;80.23;99492.00;5091468;28;20036;-80
2022/09/18 05:00:00;;;;;;;3.22;1.50;;;;;;;18.85;79.20;99492.38;5090399;28;20031;-76
2022/09/18 05:02:25;;;;;;;20.58;3.22;;;;;;;18.86;79.71;99514.00;5090605;28;20428;-78
2022/09/18 05:04:50;;;;;;;45.17;3.08;;;;;;;18.83;79.49;99519.00;5090453;28;20513;-79
2022/09/18 05:07:16;;;;;;;12.63;2.78;;;;;;;18.79;80.12;99524.03;5089661;28;20031;-79
2022/09/18 05:09:41;;;;;;;10.45;2.83;;;;;;;18.69;81.22;99525.44;5089588;28;20399;-79
2022/09/18 05:12:08;;;;;;;12.57;2.13;;;;;;;18.50;80.81;99521.59;5090231;28;20482;-78
2022/09/18 05:14:34;;;;;;;8.23;2.30;;;;;;;18.23;79.54;99495.25;5090093;28;20028;-80
2022/09/18 05:17:00;;;;;;;6.32;1.70;;;;;;;18.38;80.17;99551.22;5090348;28;20035;-77
2022/09/18 05:19:26;;;;;;;17.38;1.90;;;;;;;18.07;79.51;99537.22;5089909;28;20537;-76
2022/09/18 05:21:52;;;;;;;6.35;1.55;;;;;;;17.91;79.13;99537.56;5090099;28;20148;-80
2022/09/18 05:24:17;;;;;;;7.03;1.48;;;;;;;17.95;79.17;99566.88;5090116;28;20036;-77
2022/09/18 05:26:43;;;;;;;4.57;1.50;;;;;;;17.72;78.95;99527.34;5090986;28;20088;-80
2022/09/18 05:29:09;;;;;;;9.00;1.55;;;;;;;17.74;80.50;99564.19;5089810;28;20032;-77
2022/09/18 05:31:34;;;;;;;2.80;1.80;;;;;;;17.53;79.95;99542.44;5089480;28;20075;-76
2022/09/18 05:34:00;;;;;;;3.95;2.03;;;;;;;17.73;81.24;99572.56;5089859;28;20165;-76
2022/09/18 05:36:25;;;;;;;2.65;1.42;;;;;;;17.63;81.36;99566.59;5089713;28;20031;-78
2022/09/18 05:38:50;;;;;;;2.20;1.15;;;;;;;17.58;80.11;99553.63;5089320;28;20035;-78
2022/09/18 05:41:16;;;;;;;14.63;1.60;;;;;;;17.51;81.08;99554.53;5092017;28;20032;-79
2022/09/18 05:43:44;;;;;;;12.45;1.33;;;;;;;17.70;81.73;99584.69;5110759;28;20024;-79
2022/09/18 05:46:10;;;;;;;8.75;1.63;;;;;;;17.47;80.67;99561.41;5113167;28;20028;-78
2022/09/18 05:48:36;;;;;;;1.98;1.10;;;;;;;17.60;79.47;99595.03;5114688;28;20062;-75
2022/09/18 05:51:01;;;;;;;16.42;1.42;;;;;;;17.54;79.72;99586.78;5112199;28;20023;-78
2022/09/18 05:53:27;;;;;;;8.05;1.55;;;;;;;17.48;80.31;99579.41;5110105;28;20027;-77
2022/09/18 05:55:52;;;;;;;6.47;1.73;;;;;;;17.58;80.14;99601.72;5090394;28;20092;-77
2022/09/18 05:58:19;;;;;;;5.20;1.40;;;;;;;17.30;77.77;99567.13;5109392;28;20032;-78
2022/09/18 06:00:45;;;;;;;2.85;1.08;;;;;;;17.13;75.47;99548.50;5109715;28;20088;-76
2022/09/18 06:03:13;;;;;;;2.85;1.35;;;;;;;17.31;74.92;99571.50;5109482;28;20032;-77
2022/09/18 06:05:39;;;;;;;13.63;1.13;;;;;;;17.52;73.76;99619.56;5109786;28;20027;-77
2022/09/18 06:08:07;;;;;;;9.10;1.55;;;;;;;17.34;73.93;99625.47;5108100;28;20493;-78
2022/09/18 06:10:38;;;;;;;14.18;1.27;;;;;;;17.29;71.70;99617.06;5090173;28;20509;-78
2022/09/18 06:13:14;;;;;;;7.95;1.35;;;;;;;17.16;71.92;99610.63;5099686;28;20028;-80
2022/09/18 06:15:44;;;;;;;5.82;0.98;;;;;;;16.94;70.20;99589.91;5089090;28;20035;-82
2022/09/18 06:18:11;;;;;;;5.15;1.15;;;;;;;17.12;70.24;99634.63;5099687;28;20482;-82
2022/09/18 06:20:37;;;;;;;16.17;2.22;;;;;;;16.83;72.02;99591.22;5105646;28;20054;-84
2022/09/18 06:23:03;;;;;;;9.38;1.33;;;;;;;17.06;72.07;99616.38;5107369;28;20024;-84
2022/09/18 06:25:29;;;;;;;6.65;1.33;;;;;;;17.12;72.62;99623.78;5108619;28;20031;-84
2022/09/18 06:27:59;;;;;;;9.50;1.75;;;;;;;17.25;70.12;99656.50;5104189;28;20093;-81
2022/09/18 06:30:32;;;;;;;8.75;1.65;;;;;;;17.22;70.41;99662.31;5094996;28;20509;-82
2022/09/18 06:33:04;;;;;;;24.17;2.25;;;;;;;17.17;71.56;99664.78;5094683;28;20115;-79
2022/09/18 06:35:32;;;;;;;16.25;1.40;;;;;;;17.06;71.64;99662.56;5092702;28;20049;-82
2022/09/18 06:38:02;;;;;;;27.77;1.42;;;;;;;16.85;71.57;99627.16;5092511;28;20079;-87
2022/09/18 06:40:28;;;;;;;17.23;1.58;;;;;;;17.00;70.92;99646.19;5100956;28;20027;-92
2022/09/18 06:42:56;;;;;;;8.70;1.05;;;;;;;17.04;70.82;99664.63;5101175;28;20111;-86
2022/09/18 06:45:22;;;;;;;31.27;2.45;;;;;;;17.09;70.51;99664.06;5095133;28;20035;-82
2022/09/18 06:47:47;;;;;;;9.30;1.65;;;;;;;17.10;71.31;99673.88;5097568;28;20118;-91
2022/09/18 06:50:13;;;;;;;9.10;1.40;;;;;;;17.12;71.30;99658.25;5098593;28;20107;-86
2022/09/18 06:52:38;;;;;;;5.38;1.30;;;;;;;16.98;70.86;99659.94;5100009;28;20032;-87
2022/09/18 06:55:04;;;;;;;4.78;1.05;;;;;;;17.15;70.88;99663.28;5097111;28;20114;-88
2022/09/18 06:57:30;;;;;;;27.60;3.60;;;;;;;17.06;70.10;99672.59;5097275;28;20074;-88
2022/09/18 06:59:55;;;;;;;14.18;1.38;;;;;;;17.14;69.15;99675.19;5119810;28;20116;-90
2022/09/18 07:02:21;;;;;;;4.93;1.17;;;;;;;17.16;69.92;99689.41;5095747;28;20030;-80
2022/09/18 07:04:46;;;;;;;17.23;1.50;;;;;;;17.02;67.94;99655.81;5093150;28;20113;-81
2022/09/18 07:07:12;;;;;;;14.30;1.40;;;;;;;17.09;65.60;99711.09;5096514;28;20020;-84
2022/09/18 07:09:37;;;;;;;24.00;1.83;;;;;;;16.85;66.72;99651.59;5097011;28;20039;-80
2022/09/18 07:12:03;;;;;;;11.98;1.88;;;;;;;17.09;67.52;99694.78;5094980;28;20044;-82
2022/09/18 07:14:28;;;;;;;15.18;1.40;;;;;;;17.13;66.70;99690.66;5091696;28;20082;-81
2022/09/18 07:16:53;;;;;;;18.23;1.92;;;;;;;17.15;64.17;99715.78;5102392;28;20124;-86
2022/09/18 07:19:19;;;;;;;5.80;1.10;;;;;;;17.12;64.48;99708.00;5111670;28;20032;-90
2022/09/18 07:21:44;;;;;;;5.85;1.67;;;;;;;17.00;63.35;99705.94;5106517;28;20786;-83
2022/09/18 07:24:10;;;;;;;61.08;5.20;;;;;;;17.11;65.01;99733.47;5101845;28;20494;-82
2022/09/18 07:26:36;;;;;;;4.50;1.27;;;;;;;17.14;65.07;99721.38;5095995;28;20119;-84
2022/09/18 07:29:01;;;;;;;12.50;1.25;;;;;;;17.03;63.88;99703.66;5093250;28;20023;-81
2022/09/18 07:31:27;;;;;;;7.07;1.08;;;;;;;17.16;65.23;99716.59;5094426;28;20020;-89
2022/09/18 07:33:53;;;;;;;10.23;1.15;;;;;;;17.23;64.01;99723.81;5099952;28;20077;-92
2022/09/18 07:36:20;;;;;;;21.05;1.83;;;;;;;17.28;64.66;99732.22;5097878;28;20028;-80
2022/09/18 07:38:50;;;;;;;14.88;1.80;;;;;;;17.45;63.65;99732.03;5094738;28;20031;-82
2022/09/18 07:41:15;;;;;;;24.27;1.33;;;;;;;17.41;62.46;99726.13;5095129;28;20028;-78
2022/09/18 07:43:41;;;;;;;6.13;1.50;;;;;;;17.56;61.94;99742.41;5114853;28;20107;-79
2022/09/18 07:46:07;;;;;;;8.95;1.30;;;;;;;17.25;60.10;99712.72;5103763;28;20028;-84
2022/09/18 07:48:33;;;;;;;11.00;1.80;;;;;;;17.56;60.01;99761.44;5093059;28;20059;-81
2022/09/18 07:50:59;;;;;;;7.10;1.25;;;;;;;17.46;59.94;99741.88;5093002;28;20053;-87
2022/09/18 07:53:25;;;;;;;11.63;1.00;;;;;;;17.29;59.87;99727.63;5095148;28;20029;-84
2022/09/18 07:55:52;;;;;;;28.27;1.75;;;;;;;17.38;59.44;99737.38;5097064;28;20024;-88
2022/09/18 07:58:17;;;;;;;7.85;1.67;;;;;;;17.47;59.42;99751.69;5100733;28;20020;-85
2022/09/18 08:00:43;;;;;;;7.78;1.25;;;;;;;17.51;59.60;99742.13;5102940;28;20039;-87
2022/09/18 08:03:29;;;;;;;8.65;2.08;;;;;;;17.60;59.54;99725.53;5103113;28;20440;-90
2022/09/18 08:05:55;;;;;;;10.07;1.40;;;;;;;17.52;58.79;99717.44;5042247;28;20041;-82
2022/09/18 08:08:20;;;;;;;7.40;1.40;;;;;;;17.58;58.57;99732.22;5070422;28;20144;-83
2022/09/18 08:10:46;;;;;;;54.92;4.78;;;;;;;17.42;58.57;99678.88;5071884;28;20041;-88
2022/09/18 08:13:12;;;;;;;5.47;1.50;;;;;;;17.62;58.98;99688.13;5054679;28;20588;-86
2022/09/18 08:15:39;;;;;;;7.63;1.70;;;;;;;17.83;56.76;99700.88;5072176;28;20101;-91
2022/09/18 08:18:06;;;;;;;11.05;1.60;;;;;;;17.80;57.43;99712.16;5068682;28;20032;-83
2022/09/18 08:20:33;;;;;;;6.13;1.50;;;;;;;17.81;57.20;99690.22;5068607;28;20047;-81
2022/09/18 08:23:00;;;;;;;15.45;1.60;;;;;;;18.08;58.10;99710.34;5070299;28;20032;-82
2022/09/18 08:25:26;;;;;;;20.58;2.08;;;;;;;17.94;57.19;99668.59;5071877;28;20041;-82
2022/09/18 08:27:51;;;;;;;15.20;3.40;;;;;;;18.37;57.50;99736.56;5071840;28;20028;-83
2022/09/18 08:30:17;;;;;;;5.57;1.27;;;;;;;18.45;56.17;99720.09;5069307;28;20056;-83
2022/09/18 08:32:42;;;;;;;12.98;1.15;;;;;;;18.40;55.54;99715.25;5052870;28;20048;-84
2022/09/18 08:35:09;;;;;;;17.73;1.90;;;;;;;18.39;55.53;99690.94;5071649;28;20029;-87
2022/09/18 08:37:35;;;;;;;13.45;3.40;;;;;;;18.70;54.68;99734.13;5091912;28;20044;-89
2022/09/18 08:40:02;;;;;;;12.48;1.67;;;;;;;18.26;54.51;99656.28;5107747;28;20570;-85
2022/09/18 08:42:57;;;;;;;12.23;1.65;;;;;;;18.80;54.06;99740.09;5109856;28;20115;-79
2022/09/18 08:46:01;;;;;;;24.25;2.88;;;;;;;18.85;53.49;99732.13;5120273;28;20095;-84
2022/09/18 08:48:34;;;;;;;16.15;1.90;;;;;;;18.98;54.17;99743.13;5126582;28;20043;-86
2022/09/18 08:51:11;;;;;;;9.85;1.42;;;;;;;19.19;54.40;99737.59;5134156;27;20024;-85
2022/09/18 08:53:42;;;;;;;13.77;1.90;;;;;;;19.13;53.56;99702.97;5133404;28;20023;-86
2022/09/18 08:56:15;;;;;;;10.23;2.67;;;;;;;19.36;52.01;99738.91;5125932;27;20168;-91
2022/09/18 08:58:56;;;;;;;11.40;2.45;;;;;;;18.99;51.65;99660.31;5113461;28;20027;-85
2022/09/18 09:01:29;;;;;;;9.40;1.80;;;;;;;19.41;50.99;99755.56;5114012;28;20028;-90
2022/09/18 09:04:19;;;;;;;17.88;1.55;;;;;;;19.30;50.38;99745.19;5112191;28;20099;-89
2022/09/18 09:07:07;;;;;;;11.45;2.05;;;;;;;19.51;50.62;99764.19;5113436;28;20147;-83
2022/09/18 09:09:53;;;;;;;6.72;1.45;;;;;;;19.54;50.11;99766.50;5112248;28;20102;-82
2022/09/18 09:12:25;;;;;;;9.43;2.00;;;;;;;19.64;49.75;99754.38;5135320;27;20063;-85
2022/09/18 09:15:02;;;;;;;17.95;2.15;;;;;;;19.71;49.67;99763.44;5135708;27;20010;-80
2022/09/18 09:17:39;;;;;;;4.82;1.90;;;;;;;19.88;49.23;99789.31;5095292;28;20028;-80
2022/09/18 09:20:29;;;;;;;13.43;3.15;;;;;;;19.98;49.38;99800.69;5092653;28;20055;-81
2022/09/18 09:23:27;;;;;;;7.45;2.47;;;;;;;20.02;48.73;99802.81;5090819;28;20024;-83
2022/09/18 09:26:05;;;;;;;2.08;1.27;;;;;;;20.05;47.56;99802.41;5007164;28;20038;-77
2022/09/18 09:28:40;;;;;;;11.15;1.88;;;;;;;19.87;48.03;99766.66;5008119;28;20103;-83
2022/09/18 09:31:08;;;;;;;6.72;1.80;;;;;;;19.93;48.42;99781.34;4994090;28;20650;-82
2022/09/18 09:33:41;;;;;;;8.55;2.47;;;;;;;20.12;48.28;99826.97;5009994;28;20125;-82
2022/09/18 09:36:14;;;;;;;9.25;2.58;;;;;;;20.19;48.10;99825.09;5009221;28;20091;-81
2022/09/18 09:39:24;;;;;;;8.85;2.22;;;;;;;20.14;47.70;99792.13;5008280;28;20157;-81
2022/09/18 09:42:06;;;;;;;3.83;2.05;;;;;;;20.23;46.63;99812.72;4987944;28;20165;-80
2022/09/18 09:44:39;;;;;;;16.63;1.98;;;;;;;20.16;46.76;99809.13;4988259;28;20070;-77
2022/09/18 09:47:30;;;;;;;2.15;1.67;;;;;;;20.23;46.70;99825.53;4987675;28;20042;-78
2022/09/18 09:49:58;;;;;;;10.55;2.72;;;;;;;20.37;46.36;99816.34;4987713;28;20049;-78
2022/09/18 09:52:26;;;;;;;13.75;2.90;;;;;;;20.36;46.25;99820.97;4987158;28;20042;-78
2022/09/18 09:55:06;;;;;;;3.83;1.95;;;;;;;20.52;44.94;99820.56;4990109;28;20040;-78
2022/09/18 09:57:43;;;;;;;9.38;2.00;;;;;;;20.59;45.35;99828.78;4990996;28;20050;-79
2022/09/18 10:00:13;;;;;;;2.45;1.90;;;;;;;20.66;44.79;99832.38;4991150;28;20128;-79
2022/09/18 10:03:17;;;;;;;11.00;2.30;;;;;;;20.63;44.83;99824.59;5019620;28;20048;-79
2022/09/18 10:05:50;;;;;;;8.73;1.83;;;;;;;20.79;44.21;99831.53;5011122;28;20570;-78
2022/09/18 10:08:24;;;;;;;8.50;1.85;;;;;;;20.83;44.49;99817.22;5011311;28;20057;-77
2022/09/18 10:10:49;;;;;;;11.18;1.70;;;;;;;20.85;44.39;99842.47;5011140;28;20041;-77
2022/09/18 10:13:26;;;;;;;12.27;2.10;;;;;;;20.88;44.17;99822.91;5011094;28;20041;-78
2022/09/18 10:16:00;;;;;;;9.98;2.03;;;;;;;20.88;43.74;99792.00;5011000;28;20413;-80
2022/09/18 10:18:31;;;;;;;17.17;2.03;;;;;;;21.12;43.80;99833.22;5011628;28;20437;-80
2022/09/18 10:21:09;;;;;;;10.27;2.22;;;;;;;20.96;43.61;99802.72;5016375;28;20049;-78
2022/09/18 10:23:40;;;;;;;12.77;3.20;;;;;;;21.19;43.47;99838.69;5021836;28;20113;-78
2022/09/18 10:26:09;;;;;;;10.75;1.92;;;;;;;21.07;43.82;99791.13;5021895;28;20141;-81
2022/09/18 10:28:34;;;;;;;9.07;2.13;;;;;;;21.39;43.78;99823.06;5000515;28;20077;-80
2022/09/18 10:31:10;;;;;;;18.33;2.10;;;;;;;21.33;43.97;99768.38;5011325;28;20448;-80
2022/09/18 10:33:42;;;;;;;7.30;1.73;;;;;;;21.59;43.20;99804.69;5010900;28;20038;-81
2022/09/18 10:36:13;;;;;;;23.67;2.05;;;;;;;21.72;41.67;99814.75;5011141;28;20121;-85
2022/09/18 10:38:39;;;;;;;2.63;1.85;;;;;;;21.70;41.91;99814.13;5010605;28;20195;-83
2022/09/18 10:41:29;;;;;;;8.52;1.90;;;;;;;21.77;41.71;99808.66;5011089;28;20493;-86
2022/09/18 10:44:20;;;;;;;13.93;2.03;;;;;;;21.79;41.55;99822.94;5114249;28;20031;-86
2022/09/18 10:47:18;;;;;;;10.55;2.28;;;;;;;21.83;41.05;99802.31;5112971;28;20043;-80
2022/09/18 10:49:56;;;;;;;12.15;1.67;;;;;;;21.85;41.57;99783.75;5029401;28;20420;-81
2022/09/18 10:52:25;;;;;;;5.93;1.67;;;;;;;21.87;41.63;99798.91;5030204;28;20128;-79
2022/09/18 10:55:06;;;;;;;11.82;1.90;;;;;;;21.80;41.46;99810.94;5030199;28;20500;-80
2022/09/18 10:57:36;;;;;;;10.00;2.10;;;;;;;21.82;41.80;99801.47;5030428;28;20037;-79
2022/09/18 11:00:11;;;;;;;14.80;2.47;;;;;;;21.98;41.84;99835.75;5030316;28;20084;-81
2022/09/18 11:03:04;;;;;;;8.57;1.70;;;;;;;22.11;41.97;99811.00;5015066;28;20071;-78
2022/09/18 11:05:34;;;;;;;48.42;4.47;;;;;;;22.32;42.45;99807.97;4974138;28;20041;-81
2022/09/18 11:08:04;;;;;;;19.58;2.00;;;;;;;22.19;40.43;99769.69;4990238;28;20477;-78
2022/09/18 11:10:35;;;;;;;16.98;2.55;;;;;;;22.35;40.12;99785.59;4989584;28;20534;-78
2022/09/18 11:13:02;;;;;;;7.03;1.63;;;;;;;22.55;39.82;99808.22;4990409;28;20046;-79
2022/09/18 11:15:31;;;;;;;11.07;1.50;;;;;;;22.59;39.13;99820.41;4989950;28;20046;-78
2022/09/18 11:18:00;;;;;;;26.23;2.80;;;;;;;22.54;39.33;99803.78;4990066;28;20517;-80
2022/09/18 11:20:34;;;;;;;14.60;1.65;;;;;;;22.56;38.83;99820.88;4990265;28;20102;-81
2022/09/18 11:23:17;;;;;;;5.13;1.55;;;;;;;22.27;38.88;99805.03;4989637;28;20066;-77
2022/09/18 11:25:44;;;;;;;6.85;1.88;;;;;;;22.26;38.98;99811.59;5005081;28;20033;-78
2022/09/18 11:28:29;;;;;;;4.35;1.50;;;;;;;22.19;39.08;99819.84;5068292;28;20519;-78
2022/09/18 11:31:10;;;;;;;13.77;2.13;;;;;;;21.96;38.54;99769.38;5068724;28;20047;-78
2022/09/18 11:33:44;;;;;;;11.43;1.70;;;;;;;22.15;38.79;99809.53;5068799;28;20044;-81
2022/09/18 11:36:13;;;;;;;10.65;2.00;;;;;;;22.32;38.70;99818.06;5068655;28;20075;-81
2022/09/18 11:38:44;;;;;;;23.10;1.70;;;;;;;22.30;38.53;99803.75;5069546;28;20033;-82
2022/09/18 11:41:12;;;;;;;14.25;1.42;;;;;;;22.49;39.11;99842.00;5070368;28;20036;-79
2022/09/18 11:43:40;;;;;;;15.85;1.83;;;;;;;22.21;39.30;99822.34;5110070;28;20566;-80
2022/09/18 11:46:17;;;;;;;2.05;1.40;;;;;;;22.43;39.29;99839.28;5112903;28;20512;-78
2022/09/18 11:49:04;;;;;;;8.90;1.63;;;;;;;22.43;38.80;99858.47;5112194;28;20027;-80